首页
METAR-TAF:

METAR-TAF

机场 :

顿河畔罗斯托夫, 俄罗斯

纬度: 47-29-38N, 经度: 039-55-29E, 海拔: 65米

当前天气观测

该预报发布于48分钟前的10:30 UTC
风速6节,风向东转东北
温度 4°C
湿度 93%
气压 1021 hPa
能見度: 7000
阴天层高于400英尺

METAR: URRP 111030Z 07003MPS 7000 OVC004 04/03 Q1021 R05/190060 NOSIG RMK QBB130 QFE761/1015

时间: 15:18 (11:18 UTC)

预报

该预报发布于3小时和22分钟前的07:56 UTC
预报有效从11日的 09点(UTC)到 12日的 09点(UTC)
风速6节,风向东转东北,有时为16节阵风
能見度: 3100
阴天层高于300英尺
轻雾
短暂存在
从 11日的 09点(UTC)到 11日的 12点(UTC)
风速6节,风向,有时为16节阵风
阴天层高于200英尺
成为
从 11日的 15点(UTC)到 11日的 16点(UTC)
多云层高于1100英尺

TAF: URRP 110756Z 1109/1209 07003G08MPS 3100 BR OVC003 TEMPO 1109/1112 10003G08MPS OVC002 BECMG 1115/1116 BKN011

超过4000个机场的气象观测和天气预报(METAR&TAF报告)。

可查询的气象台以黄色和红色小点在地图上表示。

将鼠标移到小点上方,可查看气象台名称。

然后点击查看天气观测和预报。

如需切换地图:点击带黑十字的绿色按钮放大地图;点击带横线的绿色按钮缩小地图;或者点击绿色箭头查看邻近地区的地图。


METAR-TAF: